sensor_id;sensor_type;location;lat;lon;timestamp;pressure;altitude;pressure_sealevel;temperature
29701;BMP280;57917;51.380;-0.176;2023-06-22T00:05:35;101577.13;;;19.60
29701;BMP280;57917;51.380;-0.176;2023-06-22T00:11:22;101571.00;;;19.59
29701;BMP280;57917;51.380;-0.176;2023-06-22T00:17:09;101571.16;;;19.46
29701;BMP280;57917;51.380;-0.176;2023-06-22T00:22:59;101570.19;;;19.59
29701;BMP280;57917;51.380;-0.176;2023-06-22T00:28:47;101563.88;;;19.55
29701;BMP280;57917;51.380;-0.176;2023-06-22T00:34:35;101584.88;;;19.44
29701;BMP280;57917;51.380;-0.176;2023-06-22T00:40:23;101587.28;;;19.46
29701;BMP280;57917;51.380;-0.176;2023-06-22T00:46:11;101585.81;;;19.31
29701;BMP280;57917;51.380;-0.176;2023-06-22T00:51:58;101575.84;;;19.32
29701;BMP280;57917;51.380;-0.176;2023-06-22T00:57:49;101580.72;;;19.21
29701;BMP280;57917;51.380;-0.176;2023-06-22T01:03:40;101564.94;;;19.11
29701;BMP280;57917;51.380;-0.176;2023-06-22T01:09:30;101578.81;;;19.13
29701;BMP280;57917;51.380;-0.176;2023-06-22T01:15:25;101571.56;;;19.05
29701;BMP280;57917;51.380;-0.176;2023-06-22T01:21:17;101567.75;;;18.89
29701;BMP280;57917;51.380;-0.176;2023-06-22T01:33:11;101568.34;;;18.86
29701;BMP280;57917;51.380;-0.176;2023-06-22T01:39:00;101565.81;;;18.81
29701;BMP280;57917;51.380;-0.176;2023-06-22T01:44:49;101564.88;;;18.86
29701;BMP280;57917;51.380;-0.176;2023-06-22T01:50:37;101566.41;;;18.69
29701;BMP280;57917;51.380;-0.176;2023-06-22T01:56:24;101573.66;;;18.60
29701;BMP280;57917;51.380;-0.176;2023-06-22T02:02:13;101574.38;;;18.52
29701;BMP280;57917;51.380;-0.176;2023-06-22T02:08:17;101554.38;;;18.67
29701;BMP280;57917;51.380;-0.176;2023-06-22T02:14:06;101570.66;;;18.62
29701;BMP280;57917;51.380;-0.176;2023-06-22T02:19:53;101564.88;;;18.46
29701;BMP280;57917;51.380;-0.176;2023-06-22T02:25:40;101551.75;;;18.36
29701;BMP280;57917;51.380;-0.176;2023-06-22T02:31:34;101555.41;;;18.49
29701;BMP280;57917;51.380;-0.176;2023-06-22T02:37:20;101566.75;;;18.37
29701;BMP280;57917;51.380;-0.176;2023-06-22T02:43:10;101558.28;;;18.44
29701;BMP280;57917;51.380;-0.176;2023-06-22T02:48:57;101565.59;;;18.30
29701;BMP280;57917;51.380;-0.176;2023-06-22T02:54:44;101579.72;;;18.22
29701;BMP280;57917;51.380;-0.176;2023-06-22T03:00:36;101586.19;;;17.99
29701;BMP280;57917;51.380;-0.176;2023-06-22T03:06:28;101590.81;;;17.85
29701;BMP280;57917;51.380;-0.176;2023-06-22T03:12:15;101583.28;;;17.87
29701;BMP280;57917;51.380;-0.176;2023-06-22T03:18:09;101575.72;;;17.89
29701;BMP280;57917;51.380;-0.176;2023-06-22T03:23:55;101570.06;;;17.90
29701;BMP280;57917;51.380;-0.176;2023-06-22T03:29:42;101571.41;;;17.79
29701;BMP280;57917;51.380;-0.176;2023-06-22T03:35:30;101559.75;;;17.84
29701;BMP280;57917;51.380;-0.176;2023-06-22T03:41:17;101550.53;;;17.90
29701;BMP280;57917;51.380;-0.176;2023-06-22T03:47:08;101545.28;;;17.85
29701;BMP280;57917;51.380;-0.176;2023-06-22T03:52:58;101534.09;;;17.83
29701;BMP280;57917;51.380;-0.176;2023-06-22T03:58:46;101532.81;;;17.80
29701;BMP280;57917;51.380;-0.176;2023-06-22T04:04:33;101547.59;;;17.78
29701;BMP280;57917;51.380;-0.176;2023-06-22T04:10:22;101553.25;;;17.76
29701;BMP280;57917;51.380;-0.176;2023-06-22T04:16:09;101571.03;;;17.72
29701;BMP280;57917;51.380;-0.176;2023-06-22T04:21:57;101559.34;;;17.68
29701;BMP280;57917;51.380;-0.176;2023-06-22T04:27:45;101567.88;;;17.92
29701;BMP280;57917;51.380;-0.176;2023-06-22T04:33:32;101555.66;;;18.00
29701;BMP280;57917;51.380;-0.176;2023-06-22T04:39:19;101569.59;;;18.10
29701;BMP280;57917;51.380;-0.176;2023-06-22T04:45:08;101570.56;;;18.84
29701;BMP280;57917;51.380;-0.176;2023-06-22T04:50:57;101552.53;;;18.76
29701;BMP280;57917;51.380;-0.176;2023-06-22T04:56:49;101540.16;;;18.58
29701;BMP280;57917;51.380;-0.176;2023-06-22T05:02:44;101546.50;;;18.62
29701;BMP280;57917;51.380;-0.176;2023-06-22T05:08:34;101574.97;;;18.80
29701;BMP280;57917;51.380;-0.176;2023-06-22T05:14:21;101565.09;;;18.98
29701;BMP280;57917;51.380;-0.176;2023-06-22T05:20:12;101571.56;;;19.73
29701;BMP280;57917;51.380;-0.176;2023-06-22T05:26:00;101573.94;;;20.46
29701;BMP280;57917;51.380;-0.176;2023-06-22T05:31:57;101548.50;;;20.64
29701;BMP280;57917;51.380;-0.176;2023-06-22T05:37:49;101552.94;;;20.89
29701;BMP280;57917;51.380;-0.176;2023-06-22T05:43:48;101550.03;;;21.23
29701;BMP280;57917;51.380;-0.176;2023-06-22T05:49:35;101544.63;;;22.73
29701;BMP280;57917;51.380;-0.176;2023-06-22T05:55:24;101544.00;;;23.31
29701;BMP280;57917;51.380;-0.176;2023-06-22T06:01:12;101555.44;;;22.73
29701;BMP280;57917;51.380;-0.176;2023-06-22T06:07:08;101561.50;;;22.09
29701;BMP280;57917;51.380;-0.176;2023-06-22T06:12:58;101565.72;;;21.74
29701;BMP280;57917;51.380;-0.176;2023-06-22T06:18:45;101563.38;;;21.52
29701;BMP280;57917;51.380;-0.176;2023-06-22T06:24:32;101555.28;;;21.40
29701;BMP280;57917;51.380;-0.176;2023-06-22T06:30:22;101554.19;;;21.33
29701;BMP280;57917;51.380;-0.176;2023-06-22T06:36:14;101554.03;;;21.17
29701;BMP280;57917;51.380;-0.176;2023-06-22T06:42:20;101544.59;;;21.11
29701;BMP280;57917;51.380;-0.176;2023-06-22T06:48:18;101541.72;;;20.87
29701;BMP280;57917;51.380;-0.176;2023-06-22T06:54:15;101536.34;;;20.87
29701;BMP280;57917;51.380;-0.176;2023-06-22T07:00:10;101539.25;;;20.82
29701;BMP280;57917;51.380;-0.176;2023-06-22T07:06:08;101546.47;;;21.11
29701;BMP280;57917;51.380;-0.176;2023-06-22T07:12:11;101546.00;;;21.29
29701;BMP280;57917;51.380;-0.176;2023-06-22T07:18:32;101539.69;;;21.25
29701;BMP280;57917;51.380;-0.176;2023-06-22T07:24:19;101537.00;;;21.25
29701;BMP280;57917;51.380;-0.176;2023-06-22T07:30:09;101530.59;;;21.50
29701;BMP280;57917;51.380;-0.176;2023-06-22T07:35:57;101527.06;;;21.70
29701;BMP280;57917;51.380;-0.176;2023-06-22T07:41:45;101525.00;;;21.55
29701;BMP280;57917;51.380;-0.176;2023-06-22T07:47:32;101528.31;;;21.73
29701;BMP280;57917;51.380;-0.176;2023-06-22T07:53:22;101518.00;;;22.47
29701;BMP280;57917;51.380;-0.176;2023-06-22T07:59:26;101517.03;;;22.40
29701;BMP280;57917;51.380;-0.176;2023-06-22T08:05:22;101516.28;;;22.67
29701;BMP280;57917;51.380;-0.176;2023-06-22T08:11:09;101512.94;;;22.97
29701;BMP280;57917;51.380;-0.176;2023-06-22T08:16:56;101508.25;;;23.65
29701;BMP280;57917;51.380;-0.176;2023-06-22T08:22:43;101515.41;;;24.07
29701;BMP280;57917;51.380;-0.176;2023-06-22T08:28:56;101510.03;;;25.18
29701;BMP280;57917;51.380;-0.176;2023-06-22T08:36:08;101498.44;;;26.14
29701;BMP280;57917;51.380;-0.176;2023-06-22T08:42:24;101498.28;;;26.59
29701;BMP280;57917;51.380;-0.176;2023-06-22T08:48:12;101487.94;;;26.72
29701;BMP280;57917;51.380;-0.176;2023-06-22T08:54:02;101489.78;;;26.35
29701;BMP280;57917;51.380;-0.176;2023-06-22T08:59:49;101484.47;;;27.15
29701;BMP280;57917;51.380;-0.176;2023-06-22T09:05:45;101483.91;;;27.96
29701;BMP280;57917;51.380;-0.176;2023-06-22T09:11:35;101495.78;;;28.53
29701;BMP280;57917;51.380;-0.176;2023-06-22T09:17:22;101502.91;;;28.89
29701;BMP280;57917;51.380;-0.176;2023-06-22T09:23:09;101495.53;;;29.28
29701;BMP280;57917;51.380;-0.176;2023-06-22T09:29:01;101501.22;;;30.00
29701;BMP280;57917;51.380;-0.176;2023-06-22T09:34:50;101497.63;;;30.17
29701;BMP280;57917;51.380;-0.176;2023-06-22T09:41:04;101501.41;;;30.44
29701;BMP280;57917;51.380;-0.176;2023-06-22T09:46:51;101496.69;;;28.99
29701;BMP280;57917;51.380;-0.176;2023-06-22T09:52:45;101496.69;;;29.62
29701;BMP280;57917;51.380;-0.176;2023-06-22T09:58:41;101489.66;;;29.50
29701;BMP280;57917;51.380;-0.176;2023-06-22T10:04:45;101496.63;;;28.64
29701;BMP280;57917;51.380;-0.176;2023-06-22T10:11:12;101485.72;;;28.67
29701;BMP280;57917;51.380;-0.176;2023-06-22T10:17:11;101484.97;;;29.19
29701;BMP280;57917;51.380;-0.176;2023-06-22T10:23:37;101472.41;;;29.88
29701;BMP280;57917;51.380;-0.176;2023-06-22T10:29:36;101473.06;;;30.13
29701;BMP280;57917;51.380;-0.176;2023-06-22T10:35:38;101472.44;;;29.74
29701;BMP280;57917;51.380;-0.176;2023-06-22T10:41:38;101466.03;;;30.19
29701;BMP280;57917;51.380;-0.176;2023-06-22T10:47:30;101478.22;;;30.66
29701;BMP280;57917;51.380;-0.176;2023-06-22T10:53:18;101465.63;;;30.79
29701;BMP280;57917;51.380;-0.176;2023-06-22T10:59:07;101463.88;;;31.02
29701;BMP280;57917;51.380;-0.176;2023-06-22T11:04:56;101464.91;;;30.71
29701;BMP280;57917;51.380;-0.176;2023-06-22T11:10:51;101458.72;;;30.67
29701;BMP280;57917;51.380;-0.176;2023-06-22T11:16:41;101466.00;;;30.81
29701;BMP280;57917;51.380;-0.176;2023-06-22T11:22:43;101470.59;;;30.40
29701;BMP280;57917;51.380;-0.176;2023-06-22T11:29:11;101472.06;;;31.46
29701;BMP280;57917;51.380;-0.176;2023-06-22T11:35:34;101457.13;;;30.70
29701;BMP280;57917;51.380;-0.176;2023-06-22T11:41:43;101450.59;;;29.71
29701;BMP280;57917;51.380;-0.176;2023-06-22T11:47:42;101438.41;;;30.03
29701;BMP280;57917;51.380;-0.176;2023-06-22T11:53:59;101439.84;;;30.25
29701;BMP280;57917;51.380;-0.176;2023-06-22T12:00:25;101425.56;;;31.06
29701;BMP280;57917;51.380;-0.176;2023-06-22T12:06:38;101427.16;;;31.00
29701;BMP280;57917;51.380;-0.176;2023-06-22T12:12:59;101434.34;;;30.29
29701;BMP280;57917;51.380;-0.176;2023-06-22T12:19:08;101420.34;;;30.78
29701;BMP280;57917;51.380;-0.176;2023-06-22T12:25:02;101423.25;;;31.01
29701;BMP280;57917;51.380;-0.176;2023-06-22T12:31:04;101420.47;;;30.60
29701;BMP280;57917;51.380;-0.176;2023-06-22T12:36:54;101427.47;;;30.65
29701;BMP280;57917;51.380;-0.176;2023-06-22T12:43:00;101424.06;;;30.50
29701;BMP280;57917;51.380;-0.176;2023-06-22T12:49:19;101419.69;;;29.98
29701;BMP280;57917;51.380;-0.176;2023-06-22T13:01:56;101399.72;;;30.15
29701;BMP280;57917;51.380;-0.176;2023-06-22T13:07:55;101394.03;;;30.94
29701;BMP280;57917;51.380;-0.176;2023-06-22T13:13:55;101398.28;;;29.90
29701;BMP280;57917;51.380;-0.176;2023-06-22T13:19:46;101398.09;;;29.11
29701;BMP280;57917;51.380;-0.176;2023-06-22T13:25:33;101384.53;;;28.72
29701;BMP280;57917;51.380;-0.176;2023-06-22T13:31:24;101386.84;;;29.02
29701;BMP280;57917;51.380;-0.176;2023-06-22T13:37:33;101390.69;;;30.22
29701;BMP280;57917;51.380;-0.176;2023-06-22T13:43:46;101365.78;;;30.60
29701;BMP280;57917;51.380;-0.176;2023-06-22T13:49:38;101367.91;;;29.81
29701;BMP280;57917;51.380;-0.176;2023-06-22T13:55:41;101365.06;;;28.46
29701;BMP280;57917;51.380;-0.176;2023-06-22T14:01:28;101371.13;;;27.97
29701;BMP280;57917;51.380;-0.176;2023-06-22T14:07:18;101376.94;;;27.92
29701;BMP280;57917;51.380;-0.176;2023-06-22T14:13:07;101374.28;;;28.06
29701;BMP280;57917;51.380;-0.176;2023-06-22T14:18:55;101373.84;;;27.94
29701;BMP280;57917;51.380;-0.176;2023-06-22T14:25:04;101375.84;;;28.18
29701;BMP280;57917;51.380;-0.176;2023-06-22T14:30:54;101372.84;;;29.10
29701;BMP280;57917;51.380;-0.176;2023-06-22T14:36:42;101363.72;;;29.55
29701;BMP280;57917;51.380;-0.176;2023-06-22T14:42:48;101358.22;;;29.69
29701;BMP280;57917;51.380;-0.176;2023-06-22T14:49:09;101364.56;;;29.42
29701;BMP280;57917;51.380;-0.176;2023-06-22T14:55:22;101365.56;;;29.83
29701;BMP280;57917;51.380;-0.176;2023-06-22T15:02:03;101377.63;;;29.85
29701;BMP280;57917;51.380;-0.176;2023-06-22T15:08:21;101377.16;;;30.04
29701;BMP280;57917;51.380;-0.176;2023-06-22T15:14:08;101371.72;;;30.01
29701;BMP280;57917;51.380;-0.176;2023-06-22T15:19:58;101368.22;;;29.97
29701;BMP280;57917;51.380;-0.176;2023-06-22T15:26:08;101362.59;;;29.42
29701;BMP280;57917;51.380;-0.176;2023-06-22T15:32:03;101370.88;;;28.90
29701;BMP280;57917;51.380;-0.176;2023-06-22T15:37:50;101378.25;;;29.07
29701;BMP280;57917;51.380;-0.176;2023-06-22T15:43:40;101376.72;;;28.99
29701;BMP280;57917;51.380;-0.176;2023-06-22T15:49:32;101377.47;;;29.24
29701;BMP280;57917;51.380;-0.176;2023-06-22T15:55:23;101378.09;;;29.70
29701;BMP280;57917;51.380;-0.176;2023-06-22T16:01:11;101372.44;;;30.08
29701;BMP280;57917;51.380;-0.176;2023-06-22T16:07:29;101385.63;;;30.24
29701;BMP280;57917;51.380;-0.176;2023-06-22T16:13:53;101370.16;;;29.96
29701;BMP280;57917;51.380;-0.176;2023-06-22T16:20:14;101363.84;;;28.82
29701;BMP280;57917;51.380;-0.176;2023-06-22T16:26:48;101371.25;;;29.13
29701;BMP280;57917;51.380;-0.176;2023-06-22T16:32:38;101376.31;;;29.18
29701;BMP280;57917;51.380;-0.176;2023-06-22T16:38:40;101378.25;;;28.65
29701;BMP280;57917;51.380;-0.176;2023-06-22T16:44:31;101384.00;;;28.04
29701;BMP280;57917;51.380;-0.176;2023-06-22T16:50:20;101396.03;;;27.99
29701;BMP280;57917;51.380;-0.176;2023-06-22T16:56:07;101393.63;;;27.84
29701;BMP280;57917;51.380;-0.176;2023-06-22T17:01:56;101391.22;;;27.72
29701;BMP280;57917;51.380;-0.176;2023-06-22T17:07:53;101420.38;;;27.14
29701;BMP280;57917;51.380;-0.176;2023-06-22T17:13:48;101452.84;;;26.27
29701;BMP280;57917;51.380;-0.176;2023-06-22T17:19:37;101452.41;;;26.25
29701;BMP280;57917;51.380;-0.176;2023-06-22T17:25:28;101459.03;;;25.98
29701;BMP280;57917;51.380;-0.176;2023-06-22T17:31:17;101453.34;;;26.06
29701;BMP280;57917;51.380;-0.176;2023-06-22T17:37:05;101465.00;;;25.81
29701;BMP280;57917;51.380;-0.176;2023-06-22T17:43:05;101444.88;;;25.56
29701;BMP280;57917;51.380;-0.176;2023-06-22T17:48:52;101455.19;;;25.24
29701;BMP280;57917;51.380;-0.176;2023-06-22T17:54:39;101473.41;;;25.05
29701;BMP280;57917;51.380;-0.176;2023-06-22T18:00:57;101472.50;;;24.97
29701;BMP280;57917;51.380;-0.176;2023-06-22T18:06:47;101498.16;;;24.84
29701;BMP280;57917;51.380;-0.176;2023-06-22T18:12:39;101506.34;;;24.50
29701;BMP280;57917;51.380;-0.176;2023-06-22T18:18:29;101528.38;;;24.48
29701;BMP280;57917;51.380;-0.176;2023-06-22T18:24:21;101539.78;;;24.23
29701;BMP280;57917;51.380;-0.176;2023-06-22T18:30:12;101553.47;;;24.14
29701;BMP280;57917;51.380;-0.176;2023-06-22T18:36:06;101545.38;;;23.99
29701;BMP280;57917;51.380;-0.176;2023-06-22T18:41:55;101569.91;;;23.32
29701;BMP280;57917;51.380;-0.176;2023-06-22T18:47:55;101571.94;;;22.95
29701;BMP280;57917;51.380;-0.176;2023-06-22T18:54:02;101569.56;;;22.94
29701;BMP280;57917;51.380;-0.176;2023-06-22T19:05:44;101593.00;;;22.54
29701;BMP280;57917;51.380;-0.176;2023-06-22T19:11:32;101579.41;;;22.50
29701;BMP280;57917;51.380;-0.176;2023-06-22T19:17:20;101575.81;;;22.70
29701;BMP280;57917;51.380;-0.176;2023-06-22T19:23:30;101587.94;;;22.52
29701;BMP280;57917;51.380;-0.176;2023-06-22T19:29:18;101589.25;;;22.82
29701;BMP280;57917;51.380;-0.176;2023-06-22T19:35:07;101591.69;;;22.48
29701;BMP280;57917;51.380;-0.176;2023-06-22T19:40:57;101597.72;;;22.08
29701;BMP280;57917;51.380;-0.176;2023-06-22T19:46:53;101605.88;;;22.00
29701;BMP280;57917;51.380;-0.176;2023-06-22T19:52:45;101615.50;;;22.34
29701;BMP280;57917;51.380;-0.176;2023-06-22T19:58:33;101633.03;;;22.28
29701;BMP280;57917;51.380;-0.176;2023-06-22T20:04:23;101628.75;;;22.39
29701;BMP280;57917;51.380;-0.176;2023-06-22T20:10:14;101631.69;;;22.34
29701;BMP280;57917;51.380;-0.176;2023-06-22T20:16:08;101664.41;;;21.99
29701;BMP280;57917;51.380;-0.176;2023-06-22T20:21:55;101656.16;;;22.17
29701;BMP280;57917;51.380;-0.176;2023-06-22T20:27:51;101679.78;;;22.20
29701;BMP280;57917;51.380;-0.176;2023-06-22T20:34:21;101671.41;;;22.00
29701;BMP280;57917;51.380;-0.176;2023-06-22T20:40:05;101674.13;;;22.13
29701;BMP280;57917;51.380;-0.176;2023-06-22T20:45:55;101684.41;;;21.86
29701;BMP280;57917;51.380;-0.176;2023-06-22T20:51:49;101713.88;;;21.42
29701;BMP280;57917;51.380;-0.176;2023-06-22T20:57:44;101719.53;;;21.49
29701;BMP280;57917;51.380;-0.176;2023-06-22T21:03:34;101731.03;;;21.58
29701;BMP280;57917;51.380;-0.176;2023-06-22T21:09:24;101722.84;;;21.54
29701;BMP280;57917;51.380;-0.176;2023-06-22T21:15:16;101737.31;;;21.41
29701;BMP280;57917;51.380;-0.176;2023-06-22T21:21:05;101756.03;;;21.46
29701;BMP280;57917;51.380;-0.176;2023-06-22T21:26:55;101754.06;;;21.26
29701;BMP280;57917;51.380;-0.176;2023-06-22T21:32:47;101763.44;;;21.20
29701;BMP280;57917;51.380;-0.176;2023-06-22T21:38:36;101767.75;;;21.42
29701;BMP280;57917;51.380;-0.176;2023-06-22T21:44:51;101771.91;;;21.60
29701;BMP280;57917;51.380;-0.176;2023-06-22T21:50:43;101773.00;;;21.47
29701;BMP280;57917;51.380;-0.176;2023-06-22T21:56:47;101776.69;;;21.34
29701;BMP280;57917;51.380;-0.176;2023-06-22T22:02:34;101788.03;;;21.10
29701;BMP280;57917;51.380;-0.176;2023-06-22T22:08:26;101780.63;;;21.36
29701;BMP280;57917;51.380;-0.176;2023-06-22T22:14:19;101790.91;;;21.05
29701;BMP280;57917;51.380;-0.176;2023-06-22T22:20:13;101814.53;;;21.37
29701;BMP280;57917;51.380;-0.176;2023-06-22T22:26:01;101820.00;;;21.20
29701;BMP280;57917;51.380;-0.176;2023-06-22T22:32:08;101826.72;;;21.43
29701;BMP280;57917;51.380;-0.176;2023-06-22T22:37:57;101830.25;;;21.35
29701;BMP280;57917;51.380;-0.176;2023-06-22T22:43:44;101838.41;;;21.56
29701;BMP280;57917;51.380;-0.176;2023-06-22T22:49:34;101823.06;;;21.48
29701;BMP280;57917;51.380;-0.176;2023-06-22T22:55:23;101823.91;;;21.40
29701;BMP280;57917;51.380;-0.176;2023-06-22T23:07:51;101809.59;;;21.68
29701;BMP280;57917;51.380;-0.176;2023-06-22T23:13:37;101802.88;;;21.54
29701;BMP280;57917;51.380;-0.176;2023-06-22T23:19:24;101792.44;;;21.52
29701;BMP280;57917;51.380;-0.176;2023-06-22T23:25:12;101799.84;;;21.26
29701;BMP280;57917;51.380;-0.176;2023-06-22T23:30:58;101781.31;;;21.54
29701;BMP280;57917;51.380;-0.176;2023-06-22T23:36:49;101781.00;;;21.55
29701;BMP280;57917;51.380;-0.176;2023-06-22T23:42:38;101788.75;;;21.57
29701;BMP280;57917;51.380;-0.176;2023-06-22T23:48:25;101777.66;;;21.58
29701;BMP280;57917;51.380;-0.176;2023-06-22T23:54:17;101764.75;;;21.64
